Time;durP1;ratioP1;P1;durP2;ratioP2;P2;SDS_P1;SDS_P2;PMS_P1;PMS_P2;Temp;Humidity;BMP_temperature;BMP_pressure;BME280_temperature;BME280_humidity;BME280_pressure;Samples;Min_cycle;Max_cycle;Signal;HPM_P1;HPM_P2
2022/09/09 00:01:49;;;;;;;;;;;;;;;;;;21089247;28;20025;-62
2022/09/09 00:11:52;;;;;;;;;;;;;;;;;;21087187;28;19928;-59
2022/09/09 00:21:54;;;;;;;;;;;;;;;;;;21085891;28;19945;-63
2022/09/09 00:31:56;;;;;;;;;;;;;;;;;;21085776;28;20337;-64
2022/09/09 00:41:59;;;;;;;;;;;;;;;;;;21084284;28;19931;-58
2022/09/09 00:52:01;;;;;;;;;;;;;;;;;;21084692;28;20348;-65
2022/09/09 01:02:03;;;;;;;;;;;;;;;;;;21083180;28;19935;-63
2022/09/09 01:12:04;;;;;;;;;;;;;;;;;;21083216;28;20322;-63
2022/09/09 01:22:07;;;;;;;;;;;;;;;;;;21081791;28;19958;-63
2022/09/09 01:32:13;;;;;;;;;;;;;;;;;;21081322;28;19928;-63
2022/09/09 01:42:16;;;;;;;;;;;;;;;;;;21080718;28;19943;-61
2022/09/09 01:52:18;;;;;;;;;;;;;;;;;;21081060;28;20038;-64
2022/09/09 02:02:19;;;;;;;;;;;;;;;;;;21080568;28;19924;-60
2022/09/09 02:12:24;;;;;;;;;;;;;;;;;;21078999;28;20007;-63
2022/09/09 02:22:28;;;;;;;;;;;;;;;;;;21079162;28;19924;-59
2022/09/09 02:32:30;;;;;;;;;;;;;;;;;;21078839;28;19924;-63
2022/09/09 02:42:34;;;;;;;;;;;;;;;;;;21080695;28;20032;-63
2022/09/09 02:52:37;;;;;;;;;;;;;;;;;;21096835;28;19926;-63
2022/09/09 03:02:40;;;;;;;;;;;;;;;;;;21099379;28;19925;-63
2022/09/09 03:12:42;;;;;;;;;;;;;;;;;;21096515;28;19931;-59
2022/09/09 03:22:44;;;;;;;;;;;;;;;;;;21092513;28;20281;-63
2022/09/09 03:32:46;;;;;;;;;;;;;;;;;;21091250;28;19962;-61
2022/09/09 03:42:49;;;;;;;;;;;;;;;;;;21089877;28;19924;-62
2022/09/09 03:52:50;;;;;;;;;;;;;;;;;;21088441;28;19924;-63
2022/09/09 04:02:56;;;;;;;;;;;;;;;;;;21088549;28;19963;-64
2022/09/09 04:12:59;;;;;;;;;;;;;;;;;;21087365;28;19937;-59
2022/09/09 04:23:01;;;;;;;;;;;;;;;;;;21088086;28;19946;-63
2022/09/09 04:33:03;;;;;;;;;;;;;;;;;;21085533;28;19924;-64
2022/09/09 04:43:05;;;;;;;;;;;;;;;;;;21085062;28;20261;-63
2022/09/09 04:53:07;;;;;;;;;;;;;;;;;;21084694;28;19924;-62
2022/09/09 05:03:09;;;;;;;;;;;;;;;;;;21082458;28;20405;-65
2022/09/09 05:13:11;;;;;;;;;;;;;;;;;;21081800;28;19967;-64
2022/09/09 05:23:14;;;;;;;;;;;;;;;;;;21082856;28;19928;-64
2022/09/09 05:33:16;;;;;;;;;;;;;;;;;;21081600;28;19924;-63
2022/09/09 05:43:19;;;;;;;;;;;;;;;;;;21080451;28;19924;-65
2022/09/09 05:53:21;;;;;;;;;;;;;;;;;;21082217;28;19971;-65
2022/09/09 06:03:23;;;;;;;;;;;;;;;;;;21080064;28;20023;-63
2022/09/09 06:13:26;;;;;;;;;;;;;;;;;;21079117;28;20277;-63
2022/09/09 06:23:28;;;;;;;;;;;;;;;;;;21091944;28;19934;-65
2022/09/09 06:33:30;;;;;;;;;;;;;;;;;;21096044;28;20396;-64
2022/09/09 06:43:32;;;;;;;;;;;;;;;;;;21094967;28;20391;-62
2022/09/09 06:53:34;;;;;;;;;;;;;;;;;;21093664;28;19928;-64
2022/09/09 07:03:37;;;;;;;;;;;;;;;;;;21093507;28;20296;-65
2022/09/09 07:13:39;;;;;;;;;;;;;;;;;;21094971;28;19930;-61
2022/09/09 07:23:41;;;;;;;;;;;;;;;;;;21092600;28;19924;-64
2022/09/09 07:33:43;;;;;;;;;;;;;;;;;;21090728;28;19928;-67
2022/09/09 07:43:47;;;;;;;;;;;;;;;;;;21091875;28;19931;-62
2022/09/09 07:53:49;;;;;;;;;;;;;;;;;;21091624;28;20344;-67
2022/09/09 08:03:52;;;;;;;;;;;;;;;;;;21088752;28;19924;-60
2022/09/09 08:13:54;;;;;;;;;;;;;;;;;;21089270;28;19928;-65
2022/09/09 08:23:56;;;;;;;;;;;;;;;;;;21086996;28;19924;-61
2022/09/09 08:34:04;;;;;;;;;;;;;;;;;;21087576;28;19977;-65
2022/09/09 08:44:06;;;;;;;;;;;;;;;;;;21083717;28;19924;-66
2022/09/09 08:54:09;;;;;;;;;;;;;;;;;;21084333;28;19936;-60
2022/09/09 09:04:11;;;;;;;;;;;;;;;;;;21083809;28;20316;-65
2022/09/09 09:14:13;;;;;;;;;;;;;;;;;;21083375;28;20419;-64
2022/09/09 09:24:15;;;;;;;;;;;;;;;;;;21081739;28;19974;-65
2022/09/09 09:34:18;;;;;;;;;;;;;;;;;;21080313;28;20205;-62
2022/09/09 09:44:21;;;;;;;;;;;;;;;;;;21079589;28;19998;-67
2022/09/09 09:54:23;;;;;;;;;;;;;;;;;;21079111;28;19931;-62
2022/09/09 10:04:25;;;;;;;;;;;;;;;;;;21078739;28;19932;-65
2022/09/09 10:14:28;;;;;;;;;;;;;;;;;;21079901;28;19931;-62
2022/09/09 10:24:30;;;;;;;;;;;;;;;;;;21078183;28;20417;-64
2022/09/09 10:34:32;;;;;;;;;;;;;;;;;;21076963;28;19962;-63
2022/09/09 10:44:34;;;;;;;;;;;;;;;;;;21077726;28;19982;-62
2022/09/09 10:54:36;;;;;;;;;;;;;;;;;;21078738;28;19924;-63
2022/09/09 11:04:38;;;;;;;;;;;;;;;;;;21078618;28;19924;-61
2022/09/09 11:14:40;;;;;;;;;;;;;;;;;;21091439;28;19969;-62
2022/09/09 11:35:17;;;;;;;;;;;;;;;;;;20802629;23;19925;-62
2022/09/09 11:45:19;;;;;;;;;;;;;;;;;;20758934;28;19959;-65
2022/09/09 11:55:21;;;;;;;;;;;;;;;;;;20828058;28;20028;-60
2022/09/09 12:05:23;;;;;;;;;;;;;;;;;;20839204;28;19932;-61
2022/09/09 12:15:25;;;;;;;;;;;;;;;;;;20838344;28;19925;-61
2022/09/09 12:25:27;;;;;;;;;;;;;;;;;;20838967;28;20365;-59
2022/09/09 12:35:30;;;;;;;;;;;;;;;;;;20837371;28;20396;-61
2022/09/09 12:45:32;;;;;;;;;;;;;;;;;;20836826;28;20049;-60
2022/09/09 12:55:34;;;;;;;;;;;;;;;;;;20835795;28;19987;-60
2022/09/09 13:05:36;;;;;;;;;;;;;;;;;;20835111;28;19991;-60
2022/09/09 13:15:38;;;;;;;;;;;;;;;;;;20834991;28;19925;-61
2022/09/09 13:25:40;;;;;;;;;;;;;;;;;;20833565;28;19925;-60
2022/09/09 13:35:42;;;;;;;;;;;;;;;;;;20833806;28;19925;-62
2022/09/09 13:45:47;;;;;;;;;;;;;;;;;;20834092;28;19925;-61
2022/09/09 13:55:48;;;;;;;;;;;;;;;;;;20832875;28;20012;-62
2022/09/09 14:05:50;;;;;;;;;;;;;;;;;;20831546;28;20070;-62
2022/09/09 14:15:53;;;;;;;;;;;;;;;;;;20831731;28;20313;-62
2022/09/09 14:25:54;;;;;;;;;;;;;;;;;;20830540;28;19929;-62
2022/09/09 14:35:56;;;;;;;;;;;;;;;;;;20830123;28;19926;-61
2022/09/09 14:45:58;;;;;;;;;;;;;;;;;;20844090;28;19944;-61
2022/09/09 14:56:00;;;;;;;;;;;;;;;;;;20845815;28;20332;-61
2022/09/09 15:06:02;;;;;;;;;;;;;;;;;;20844882;28;19933;-64
2022/09/09 15:16:04;;;;;;;;;;;;;;;;;;20843636;28;19950;-61
2022/09/09 15:26:06;;;;;;;;;;;;;;;;;;20843232;28;20395;-61
2022/09/09 15:36:08;;;;;;;;;;;;;;;;;;20844354;28;20396;-62
2022/09/09 15:46:10;;;;;;;;;;;;;;;;;;20841161;28;19929;-62
2022/09/09 15:56:12;;;;;;;;;;;;;;;;;;20839861;28;20305;-62
2022/09/09 16:06:14;;;;;;;;;;;;;;;;;;20839396;28;19979;-61
2022/09/09 16:16:16;;;;;;;;;;;;;;;;;;20838783;28;20368;-60
2022/09/09 16:26:18;;;;;;;;;;;;;;;;;;20836232;28;20016;-59
2022/09/09 16:36:20;;;;;;;;;;;;;;;;;;20792391;28;19977;-61
2022/09/09 16:46:23;;;;;;;;;;;;;;;;;;20754448;28;19932;-60
2022/09/09 16:56:25;;;;;;;;;;;;;;;;;;20754255;28;20337;-62
2022/09/09 17:06:27;;;;;;;;;;;;;;;;;;20753309;28;19926;-61
2022/09/09 17:16:29;;;;;;;;;;;;;;;;;;20754325;28;19952;-61
2022/09/09 17:26:32;;;;;;;;;;;;;;;;;;20752053;28;19925;-61
2022/09/09 17:36:36;;;;;;;;;;;;;;;;;;20752148;28;20413;-61
2022/09/09 17:46:40;;;;;;;;;;;;;;;;;;20747917;28;19925;-61
2022/09/09 17:56:42;;;;;;;;;;;;;;;;;;20745856;28;19929;-63
2022/09/09 18:06:44;;;;;;;;;;;;;;;;;;20748898;28;19929;-61
2022/09/09 18:16:46;;;;;;;;;;;;;;;;;;20757119;28;20352;-62
2022/09/09 18:26:48;;;;;;;;;;;;;;;;;;20763757;28;19926;-60
2022/09/09 18:36:54;;;;;;;;;;;;;;;;;;20764647;28;20316;-62
2022/09/09 18:46:56;;;;;;;;;;;;;;;;;;20763673;28;20008;-62
2022/09/09 18:56:59;;;;;;;;;;;;;;;;;;20762474;28;19930;-63
2022/09/09 19:07:01;;;;;;;;;;;;;;;;;;20761153;28;19925;-63
2022/09/09 19:17:03;;;;;;;;;;;;;;;;;;20761358;28;20004;-64
2022/09/09 19:27:05;;;;;;;;;;;;;;;;;;20758823;28;19948;-65
2022/09/09 19:37:07;;;;;;;;;;;;;;;;;;20760150;28;19933;-63
2022/09/09 19:47:09;;;;;;;;;;;;;;;;;;20758848;28;19925;-64
2022/09/09 19:57:10;;;;;;;;;;;;;;;;;;20758987;28;20012;-61
2022/09/09 20:07:13;;;;;;;;;;;;;;;;;;20757585;28;19933;-63
2022/09/09 20:17:15;;;;;;;;;;;;;;;;;;20757060;28;19925;-63
2022/09/09 20:27:17;;;;;;;;;;;;;;;;;;20737490;28;19932;-63
2022/09/09 20:37:20;;;;;;;;;;;;;;;;;;20754850;28;20056;-62
2022/09/09 20:47:22;;;;;;;;;;;;;;;;;;20737696;28;19964;-63
2022/09/09 20:57:24;;;;;;;;;;;;;;;;;;20754225;28;19988;-64
2022/09/09 21:07:27;;;;;;;;;;;;;;;;;;20753748;28;19979;-63
2022/09/09 21:17:30;;;;;;;;;;;;;;;;;;20752053;28;19929;-62
2022/09/09 21:27:34;;;;;;;;;;;;;;;;;;20751309;28;19980;-63
2022/09/09 21:37:36;;;;;;;;;;;;;;;;;;20750982;28;19925;-63
2022/09/09 21:47:38;;;;;;;;;;;;;;;;;;20749905;28;20076;-63
2022/09/09 21:57:39;;;;;;;;;;;;;;;;;;20751391;28;19936;-63
2022/09/09 22:07:41;;;;;;;;;;;;;;;;;;20749710;28;19925;-62
2022/09/09 22:17:44;;;;;;;;;;;;;;;;;;20751337;28;19948;-62
2022/09/09 22:27:46;;;;;;;;;;;;;;;;;;20749143;28;19932;-65
2022/09/09 22:37:49;;;;;;;;;;;;;;;;;;20754686;28;20534;-64
2022/09/09 22:47:51;;;;;;;;;;;;;;;;;;20751700;28;19925;-63
2022/09/09 22:57:53;;;;;;;;;;;;;;;;;;20753754;28;20385;-63
2022/09/09 23:07:57;;;;;;;;;;;;;;;;;;20766638;28;19933;-64
2022/09/09 23:17:58;;;;;;;;;;;;;;;;;;20765079;28;20345;-64
2022/09/09 23:28:00;;;;;;;;;;;;;;;;;;20760421;28;19929;-63
2022/09/09 23:38:02;;;;;;;;;;;;;;;;;;20760671;28;19925;-65
2022/09/09 23:48:04;;;;;;;;;;;;;;;;;;20759816;28;20261;-63
2022/09/09 23:58:06;;;;;;;;;;;;;;;;;;20758754;28;19972;-62
